»·PEaware :: N725WS KRBG-KOTH

N725WS :: KRBG-KOTH

FLIGHT INFORMATION

Flight Status: Arrived
Operator: Privately registered:
United States
More flights under this callsign
Pilot: Wausau Flying Service (12986)
Aircraft: PIPER PA-28R-201 ARROW
(P28R)
More flights by this aircraft type
Origin: KRBG Roseburg Regl
United States
Destination: KOTH North Bend Mun
United States
More flights between these airports :: More routes between these airports
Route: RBG V121 OTH
File this flight plan on PilotEdge
Remarks:
Altitude:
(Current/Filed)
6,000ft
Speed:
(Current/Filed)
140kts
Departed: 31-Jul-18 01:54 PM
Arrived: 31-Jul-18 02:33 PM
Distance/Time
Traveled:
1447nm/0:39
Distance/Time
To Go:
Arrived

Flight Plot

Page will automatically refresh every two minutes.

Flight plan parsing failed; only flown route is shown


Map Options




Map Legend


Flown Route
Filed Route
Departure Airport
Arrival Airport
Navaid (VOR, NDB)
Fix

Horizontal Profiles

Position Reports

Time Latitude Longitude Heading Altitude Ground
Speed
31-Jul-18 13:50 43.232783 -123.356922 160 531ft 0kts
31-Jul-18 13:51 43.232772 -123.356915 151 531ft 0kts
31-Jul-18 13:52 43.232772 -123.356915 151 531ft 0kts
31-Jul-18 13:53 43.232772 -123.356915 151 531ft 0kts
31-Jul-18 13:54 43.232716 -123.356859 131 531ft 2kts
31-Jul-18 13:55 43.237905 -123.355850 0 600ft 88kts
31-Jul-18 13:56 43.264809 -123.352365 8 2014ft 107kts
31-Jul-18 13:57 43.293224 -123.339792 61 3225ft 116kts
31-Jul-18 13:58 43.272716 -123.323912 190 4469ft 113kts
31-Jul-18 13:59 43.241965 -123.334262 196 5635ft 115kts
31-Jul-18 14:00 43.207045 -123.347480 186 6019ft 147kts
31-Jul-18 14:01 43.184480 -123.383387 289 5986ft 146kts
31-Jul-18 14:02 43.199933 -123.434174 296 6014ft 144kts
31-Jul-18 14:03 43.218992 -123.482514 300 6027ft 144kts
31-Jul-18 14:04 43.236858 -123.531750 291 6033ft 144kts
31-Jul-18 14:05 43.248673 -123.584506 285 6020ft 145kts
31-Jul-18 14:06 43.260738 -123.637236 288 6008ft 145kts
31-Jul-18 14:07 43.276608 -123.688160 294 5997ft 145kts
31-Jul-18 14:08 43.292417 -123.738991 288 5987ft 145kts
31-Jul-18 14:09 43.303477 -123.792216 288 5979ft 145kts
31-Jul-18 14:10 43.319672 -123.842841 295 5973ft 145kts
31-Jul-18 14:11 43.336817 -123.892802 294 5969ft 145kts
31-Jul-18 14:12 43.351549 -123.944118 289 5994ft 144kts
31-Jul-18 14:13 43.362934 -123.996871 285 6006ft 144kts
31-Jul-18 14:14 43.376755 -124.048631 291 6026ft 144kts
31-Jul-18 14:15 43.393221 -124.098897 294 6011ft 145kts
31-Jul-18 14:16 43.410643 -124.149028 294 5998ft 144kts
31-Jul-18 14:17 43.394973 -124.186857 174 6003ft 144kts
31-Jul-18 14:18 43.355578 -124.177527 169 6027ft 144kts
31-Jul-18 14:19 43.313747 -124.174349 178 5615ft 157kts
31-Jul-18 14:20 43.270065 -124.176640 183 5052ft 159kts
31-Jul-18 14:21 43.248437 -124.133898 89 4382ft 160kts
31-Jul-18 14:22 43.260804 -124.076107 64 3927ft 152kts
31-Jul-18 14:23 43.282937 -124.028713 49 3913ft 145kts
31-Jul-18 14:24 43.312219 -123.990164 37 3892ft 145kts
31-Jul-18 14:25 43.345935 -123.960002 25 3916ft 145kts
31-Jul-18 14:26 43.383938 -123.941855 9 3928ft 145kts
31-Jul-18 14:27 43.411768 -123.967902 271 3852ft 149kts
31-Jul-18 14:28 43.409911 -124.026615 269 3251ft 156kts
31-Jul-18 14:29 43.410050 -124.085971 272 2533ft 151kts
31-Jul-18 14:30 43.413280 -124.142077 275 2037ft 146kts
31-Jul-18 14:31 43.416580 -124.195122 269 1501ft 137kts
31-Jul-18 14:32 43.416064 -124.244655 250 724ft 117kts
31-Jul-18 14:33 43.401946 -124.234343 33 474ft 91kts
31-Jul-18 14:34 43.416976 -124.244014 333 20ft 29kts
31-Jul-18 14:35 43.417213 -124.245662 239 20ft 10kts
31-Jul-18 14:36 43.416448 -124.246408 164 20ft 0kts
31-Jul-18 14:37 43.416448 -124.246408 164 20ft 0kts
31-Jul-18 14:38 43.416457 -124.246414 164 20ft 0kts
31-Jul-18 14:39 44.929089 -89.629945 274 1204ft 0kts
31-Jul-18 14:40 44.929089 -89.629945 274 1204ft 0kts
31-Jul-18 14:41 44.929089 -89.629945 274 1204ft 0kts
31-Jul-18 14:42 44.929089 -89.629945 274 1204ft 0kts
31-Jul-18 14:43 44.929089 -89.629945 274 1204ft 0kts
31-Jul-18 14:44 44.929089 -89.629945 274 1204ft 0kts
31-Jul-18 14:45 44.929089 -89.629945 274 1204ft 0kts
31-Jul-18 14:46 44.929089 -89.629945 274 1204ft 0kts
31-Jul-18 14:47 44.929089 -89.629945 274 1204ft 0kts
31-Jul-18 14:48 44.929089 -89.629945 274 1204ft 0kts
31-Jul-18 14:49 44.929089 -89.629945 274 1204ft 0kts

Navigation Log

Ident Type
Flight plan parsing failed, navigation log unavailable